Time;durP1;ratioP1;P1;durP2;ratioP2;P2;SDS_P1;SDS_P2;PMS_P1;PMS_P2;Temp;Humidity;BMP_temperature;BMP_pressure;BME280_temperature;BME280_humidity;BME280_pressure;Samples;Min_cycle;Max_cycle;Signal;HPM_P1;HPM_P2
2021/12/28 00:01:16;;;;;;;4.70;3.60;;;7.00;93.10;;;;;;5031837;28;20301;-83
2021/12/28 00:03:45;;;;;;;4.93;3.50;;;7.00;93.10;;;;;;5032183;28;20223;-84
2021/12/28 00:06:13;;;;;;;5.15;3.20;;;7.00;93.00;;;;;;5030966;28;20188;-82
2021/12/28 00:08:41;;;;;;;4.15;2.75;;;6.90;93.10;;;;;;5032116;28;20196;-81
2021/12/28 00:11:09;;;;;;;5.38;3.05;;;6.80;93.30;;;;;;5029685;28;20199;-82
2021/12/28 00:13:38;;;;;;;5.30;3.03;;;6.70;93.40;;;;;;5028193;28;20191;-82
2021/12/28 00:18:55;;;;;;;5.13;3.00;;;6.50;93.60;;;;;;5028507;28;20200;-82
2021/12/28 00:21:23;;;;;;;3.72;2.88;;;6.40;93.50;;;;;;5032114;28;20233;-82
2021/12/28 00:23:50;;;;;;;4.28;3.28;;;6.40;93.60;;;;;;5031930;28;20258;-82
2021/12/28 00:26:18;;;;;;;3.65;2.90;;;6.40;93.40;;;;;;5031883;28;20226;-82
2021/12/28 00:28:47;;;;;;;3.28;2.40;;;6.40;93.30;;;;;;5031306;28;20227;-82
2021/12/28 00:31:15;;;;;;;6.50;2.75;;;6.40;93.50;;;;;;5031437;28;20388;-82
2021/12/28 00:33:44;;;;;;;3.40;2.60;;;6.30;93.50;;;;;;5031622;28;20639;-81
2021/12/28 00:36:13;;;;;;;3.92;2.97;;;6.20;93.50;;;;;;5027937;28;20234;-82
2021/12/28 00:38:41;;;;;;;3.50;2.55;;;6.20;93.60;;;;;;5028098;28;20646;-81
2021/12/28 00:41:09;;;;;;;5.07;2.55;;;6.20;93.50;;;;;;5026989;28;20191;-82
2021/12/28 00:43:37;;;;;;;5.00;3.10;;;6.20;93.50;;;;;;5031407;28;20230;-81
2021/12/28 00:46:06;;;;;;;5.10;2.50;;;6.20;93.60;;;;;;5028646;28;20196;-81
2021/12/28 00:48:34;;;;;;;4.45;2.30;;;6.20;93.60;;;;;;5031692;28;20650;-81
2021/12/28 00:51:01;;;;;;;4.10;2.92;;;6.20;93.40;;;;;;5033366;28;20223;-81
2021/12/28 00:53:30;;;;;;;3.80;2.83;;;6.20;93.20;;;;;;5031511;28;20565;-81
2021/12/28 00:55:57;;;;;;;3.45;2.45;;;6.10;93.30;;;;;;5033395;28;20196;-81
2021/12/28 00:58:24;;;;;;;4.95;2.42;;;6.20;93.20;;;;;;5031624;28;20210;-76
2021/12/28 01:00:52;;;;;;;5.03;3.08;;;6.10;93.20;;;;;;5029175;28;20196;-81
2021/12/28 01:03:20;;;;;;;5.07;3.00;;;6.10;93.10;;;;;;5031008;28;20227;-81
2021/12/28 01:05:47;;;;;;;5.45;2.15;;;6.10;93.00;;;;;;5029416;28;20188;-82
2021/12/28 01:08:15;;;;;;;6.43;3.60;;;6.10;92.90;;;;;;5027875;28;20199;-82
2021/12/28 01:10:47;;;;;;;5.32;3.53;;;6.10;92.60;;;;;;5028466;28;20187;-82
2021/12/28 01:13:15;;;;;;;5.05;3.42;;;6.10;92.50;;;;;;5026897;28;20195;-82
2021/12/28 01:15:42;;;;;;;9.18;2.63;;;6.10;92.40;;;;;;5030974;28;20195;-82
2021/12/28 01:18:10;;;;;;;5.28;3.75;;;6.00;92.20;;;;;;5030772;28;20278;-82
2021/12/28 01:20:37;;;;;;;5.38;3.78;;;5.90;92.20;;;;;;5030255;28;20651;-82
2021/12/28 01:23:05;;;;;;;5.22;3.42;;;5.90;92.40;;;;;;5029526;28;20593;-82
2021/12/28 01:25:33;;;;;;;5.85;3.53;;;5.80;92.50;;;;;;5019832;28;20196;-82
2021/12/28 01:28:03;;;;;;;4.88;4.20;;;5.70;92.80;;;;;;5016171;28;20231;-82
2021/12/28 01:30:32;;;;;;;10.57;6.05;;;5.60;92.90;;;;;;5019457;28;20291;-82
2021/12/28 01:33:00;;;;;;;8.20;5.45;;;5.50;92.70;;;;;;5015437;28;20196;-77
2021/12/28 01:35:29;;;;;;;5.50;3.95;;;5.50;92.70;;;;;;5011682;28;20196;-82
2021/12/28 01:37:56;;;;;;;4.72;3.92;;;5.40;92.90;;;;;;5030895;28;20227;-82
2021/12/28 01:40:25;;;;;;;5.70;3.60;;;5.30;93.00;;;;;;5030679;28;20277;-82
2021/12/28 01:43:04;;;;;;;4.40;2.50;;;5.10;93.10;;;;;;5025833;28;20241;-82
2021/12/28 01:45:41;;;;;;;4.03;3.20;;;5.10;93.30;;;;;;5024107;28;20565;-82
2021/12/28 01:48:10;;;;;;;4.70;3.30;;;5.00;93.50;;;;;;5032877;28;20191;-82
2021/12/28 01:50:38;;;;;;;8.15;5.25;;;5.10;93.30;;;;;;5027067;28;20199;-82
2021/12/28 01:53:06;;;;;;;6.20;3.80;;;5.00;93.50;;;;;;5030152;28;20234;-82
2021/12/28 01:55:35;;;;;;;5.07;2.90;;;5.00;93.60;;;;;;5030512;28;20196;-83
2021/12/28 01:58:04;;;;;;;4.25;2.83;;;4.90;93.70;;;;;;5031297;28;20586;-83
2021/12/28 02:00:32;;;;;;;5.55;3.78;;;4.90;93.90;;;;;;5031383;28;20199;-82
2021/12/28 02:03:00;;;;;;;4.63;2.97;;;4.80;93.50;;;;;;5034972;28;20553;-83
2021/12/28 02:05:27;;;;;;;5.85;2.85;;;4.80;93.60;;;;;;5034726;28;20593;-82
2021/12/28 02:07:54;;;;;;;6.70;3.30;;;4.70;93.40;;;;;;5033391;28;20196;-83
2021/12/28 02:10:21;;;;;;;6.45;3.45;;;4.70;93.60;;;;;;5030099;28;20199;-82
2021/12/28 02:12:48;;;;;;;5.80;3.45;;;4.80;93.70;;;;;;5035333;28;20296;-82
2021/12/28 02:15:17;;;;;;;7.30;3.95;;;4.80;93.70;;;;;;5034080;28;20882;-82
2021/12/28 02:17:44;;;;;;;6.30;3.70;;;4.80;93.60;;;;;;5034497;28;20200;-82
2021/12/28 02:20:16;;;;;;;7.70;4.43;;;4.80;93.30;;;;;;5033632;28;20200;-82
2021/12/28 02:22:44;;;;;;;8.07;3.78;;;4.70;93.10;;;;;;5036047;28;20288;-82
2021/12/28 02:25:13;;;;;;;5.10;3.22;;;4.70;93.00;;;;;;5033723;28;20223;-82
2021/12/28 02:27:41;;;;;;;5.88;3.75;;;4.60;93.20;;;;;;5033730;28;20188;-81
2021/12/28 02:30:10;;;;;;;5.20;3.80;;;4.60;93.20;;;;;;5033328;28;20206;-82
2021/12/28 02:32:39;;;;;;;7.43;3.40;;;4.70;92.90;;;;;;5028428;28;20187;-82
2021/12/28 02:35:08;;;;;;;5.53;3.10;;;4.70;92.90;;;;;;5029960;28;20195;-82
2021/12/28 02:37:36;;;;;;;6.65;3.50;;;4.70;92.90;;;;;;5032476;28;20218;-81
2021/12/28 02:40:04;;;;;;;6.88;3.33;;;4.60;93.00;;;;;;5032217;28;20620;-81
2021/12/28 02:42:32;;;;;;;5.78;3.05;;;4.70;93.00;;;;;;5033045;28;20215;-82
2021/12/28 02:45:02;;;;;;;5.05;3.03;;;4.60;92.80;;;;;;5031855;28;20223;-82
2021/12/28 02:47:32;;;;;;;6.18;2.20;;;4.70;92.90;;;;;;5033695;28;20287;-82
2021/12/28 02:49:59;;;;;;;7.35;2.05;;;4.70;92.90;;;;;;5032078;28;20191;-82
2021/12/28 02:52:26;;;;;;;6.63;2.40;;;4.70;92.90;;;;;;5033504;28;20234;-81
2021/12/28 02:54:54;;;;;;;4.40;1.95;;;4.70;92.70;;;;;;5033464;28;20198;-81
2021/12/28 02:57:22;;;;;;;3.50;2.40;;;4.70;92.70;;;;;;5033415;28;20253;-81
2021/12/28 02:59:50;;;;;;;4.18;2.45;;;4.70;92.40;;;;;;5033590;28;20617;-81
2021/12/28 03:02:18;;;;;;;2.90;1.80;;;4.70;92.40;;;;;;5034200;28;20207;-80
2021/12/28 03:04:46;;;;;;;6.10;3.13;;;4.70;92.10;;;;;;5033196;28;20238;-81
2021/12/28 03:07:13;;;;;;;4.10;2.47;;;4.70;91.90;;;;;;5033366;28;20200;-80
2021/12/28 03:09:41;;;;;;;3.42;2.22;;;4.60;91.60;;;;;;5030126;28;20195;-81
2021/12/28 03:12:10;;;;;;;4.32;1.98;;;4.60;91.60;;;;;;5029782;28;20200;-78
2021/12/28 03:14:38;;;;;;;3.67;2.45;;;4.60;91.50;;;;;;5035021;28;20199;-81
2021/12/28 03:17:06;;;;;;;2.95;1.85;;;4.60;91.20;;;;;;5029980;28;20199;-82
2021/12/28 03:19:35;;;;;;;4.35;2.00;;;4.50;91.00;;;;;;5032521;28;20203;-82
2021/12/28 03:22:02;;;;;;;5.43;1.98;;;4.50;90.70;;;;;;5030480;28;20653;-82
2021/12/28 03:24:30;;;;;;;4.22;2.20;;;4.50;90.80;;;;;;5032775;28;20320;-82
2021/12/28 03:26:57;;;;;;;3.15;2.25;;;4.40;90.90;;;;;;5033452;28;20194;-82
2021/12/28 03:29:26;;;;;;;3.45;2.10;;;4.40;90.90;;;;;;5029401;28;20196;-81
2021/12/28 03:31:53;;;;;;;3.67;2.10;;;4.40;91.10;;;;;;5029474;28;20231;-80
2021/12/28 03:34:20;;;;;;;3.40;1.83;;;4.40;91.30;;;;;;5032757;28;20203;-81
2021/12/28 03:36:47;;;;;;;3.67;1.95;;;4.40;91.20;;;;;;5029438;28;20210;-81
2021/12/28 03:39:14;;;;;;;3.63;2.20;;;4.40;91.20;;;;;;5030979;28;20556;-82
2021/12/28 03:41:41;;;;;;;2.35;1.65;;;4.40;91.30;;;;;;5028781;28;20601;-82
2021/12/28 03:44:08;;;;;;;2.45;1.83;;;4.40;91.40;;;;;;5032675;28;20262;-82
2021/12/28 03:46:37;;;;;;;2.65;2.28;;;4.40;91.30;;;;;;5032900;28;20191;-82
2021/12/28 03:49:04;;;;;;;2.92;2.00;;;4.40;91.50;;;;;;5032670;28;20199;-82
2021/12/28 03:51:31;;;;;;;2.58;1.75;;;4.40;91.30;;;;;;5026236;28;20730;-82
2021/12/28 03:53:59;;;;;;;4.13;1.70;;;4.40;91.40;;;;;;5032646;28;20199;-82
2021/12/28 03:56:26;;;;;;;3.65;1.85;;;4.30;91.50;;;;;;5025471;28;20211;-82
2021/12/28 03:58:54;;;;;;;3.60;2.65;;;4.30;91.40;;;;;;5028378;28;20269;-82
2021/12/28 04:01:23;;;;;;;3.28;1.60;;;4.30;91.70;;;;;;5032726;28;20192;-83
2021/12/28 04:03:52;;;;;;;3.75;2.40;;;4.30;92.00;;;;;;5032189;28;20277;-82
2021/12/28 04:06:20;;;;;;;8.00;3.20;;;4.30;92.20;;;;;;5032254;28;20202;-82
2021/12/28 04:08:49;;;;;;;5.88;3.75;;;4.30;92.50;;;;;;5032229;28;20281;-82
2021/12/28 04:14:01;;;;;;;3.30;2.60;;;4.30;92.10;;;;;;5029774;28;20550;-82
2021/12/28 04:16:29;;;;;;;5.10;2.60;;;4.30;91.80;;;;;;5028437;28;20266;-81
2021/12/28 04:18:59;;;;;;;3.78;2.63;;;4.30;91.50;;;;;;5019960;28;20663;-81
2021/12/28 04:21:27;;;;;;;3.03;2.00;;;4.30;91.50;;;;;;5015219;28;20558;-81
2021/12/28 04:23:58;;;;;;;3.63;2.38;;;4.30;91.50;;;;;;5020906;28;20302;-81
2021/12/28 04:26:26;;;;;;;2.80;2.00;;;4.30;91.30;;;;;;5028140;28;20207;-81
2021/12/28 04:28:54;;;;;;;3.45;2.30;;;4.30;91.10;;;;;;5031860;28;20191;-81
2021/12/28 04:31:21;;;;;;;2.40;1.80;;;4.30;91.10;;;;;;5031588;28;20207;-82
2021/12/28 04:33:48;;;;;;;3.83;2.85;;;4.20;91.20;;;;;;5031161;28;20705;-84
2021/12/28 04:36:18;;;;;;;3.45;2.67;;;4.20;91.20;;;;;;5031743;28;20200;-81
2021/12/28 04:38:47;;;;;;;4.47;2.33;;;4.20;91.00;;;;;;5030939;28;20629;-81
2021/12/28 04:41:14;;;;;;;3.75;2.60;;;4.20;91.20;;;;;;5030866;28;20200;-81
2021/12/28 04:43:42;;;;;;;4.55;3.00;;;4.10;91.40;;;;;;5030944;28;20654;-81
2021/12/28 04:46:09;;;;;;;4.35;3.40;;;4.10;91.20;;;;;;5033244;28;20219;-82
2021/12/28 04:48:37;;;;;;;4.65;3.05;;;4.10;91.10;;;;;;5032242;28;20562;-80
2021/12/28 04:51:04;;;;;;;4.78;3.80;;;4.10;91.00;;;;;;5024421;28;20255;-81
2021/12/28 04:53:34;;;;;;;7.75;4.60;;;4.10;91.00;;;;;;5027578;28;20222;-81
2021/12/28 04:56:01;;;;;;;5.82;4.50;;;4.00;91.00;;;;;;5031268;28;20733;-81
2021/12/28 04:58:30;;;;;;;4.90;4.07;;;4.10;91.20;;;;;;5031664;28;20285;-81
2021/12/28 05:00:58;;;;;;;6.25;4.63;;;4.00;91.00;;;;;;5026606;28;20223;-82
2021/12/28 05:03:26;;;;;;;7.95;4.20;;;4.00;90.90;;;;;;5030451;28;20249;-82
2021/12/28 05:05:53;;;;;;;6.85;4.70;;;3.90;90.60;;;;;;5030182;28;20225;-82
2021/12/28 05:08:22;;;;;;;7.03;4.72;;;3.90;90.80;;;;;;5031304;28;20238;-82
2021/12/28 05:10:52;;;;;;;7.25;4.28;;;3.90;91.10;;;;;;5026950;28;20187;-82
2021/12/28 05:13:20;;;;;;;6.05;4.90;;;4.00;91.40;;;;;;5031041;28;20609;-82
2021/12/28 05:15:48;;;;;;;5.60;4.10;;;4.00;91.50;;;;;;5028593;28;20306;-82
2021/12/28 05:18:16;;;;;;;8.48;5.32;;;4.00;91.60;;;;;;5031119;28;20195;-82
2021/12/28 05:20:43;;;;;;;6.25;4.72;;;4.10;91.90;;;;;;5030592;28;20203;-83
2021/12/28 05:23:11;;;;;;;4.63;2.40;;;4.10;92.00;;;;;;5029632;28;20191;-82
2021/12/28 05:25:39;;;;;;;2.75;1.80;;;4.20;92.00;;;;;;5026783;28;20597;-82
2021/12/28 05:28:08;;;;;;;3.30;1.92;;;4.20;91.70;;;;;;5032724;28;20188;-82
2021/12/28 05:30:35;;;;;;;2.80;1.95;;;4.20;91.50;;;;;;5030455;28;20642;-81
2021/12/28 05:33:03;;;;;;;2.70;1.83;;;4.20;91.40;;;;;;5028658;28;20245;-80
2021/12/28 05:35:31;;;;;;;3.25;1.90;;;4.20;91.10;;;;;;5031129;28;20646;-82
2021/12/28 05:37:58;;;;;;;2.65;1.58;;;4.20;90.80;;;;;;5028191;28;20196;-82
2021/12/28 05:40:25;;;;;;;5.90;1.75;;;4.20;90.90;;;;;;5029700;28;20195;-82
2021/12/28 05:42:53;;;;;;;2.40;1.30;;;4.10;91.00;;;;;;5032106;28;20202;-82
2021/12/28 05:45:21;;;;;;;2.45;1.85;;;4.10;90.70;;;;;;5031037;28;20227;-82
2021/12/28 05:47:49;;;;;;;3.78;2.40;;;4.10;90.70;;;;;;5028305;28;20195;-83
2021/12/28 05:50:16;;;;;;;3.90;2.85;;;4.10;90.90;;;;;;5029185;28;20199;-82
2021/12/28 05:52:43;;;;;;;6.68;4.95;;;4.10;90.80;;;;;;5030611;28;20301;-82
2021/12/28 05:55:11;;;;;;;4.80;3.08;;;4.10;91.10;;;;;;5031052;28;20242;-82
2021/12/28 05:57:38;;;;;;;4.72;2.75;;;4.10;91.10;;;;;;5030619;28;20195;-82
2021/12/28 06:00:08;;;;;;;4.90;3.28;;;4.10;91.20;;;;;;5027741;28;20195;-82
2021/12/28 06:02:37;;;;;;;5.88;4.00;;;4.20;91.10;;;;;;5030701;28;20195;-82
2021/12/28 06:05:06;;;;;;;4.03;3.13;;;4.20;91.10;;;;;;5033198;28;20219;-81
2021/12/28 06:07:33;;;;;;;3.78;2.20;;;4.20;91.10;;;;;;5030644;28;20195;-82
2021/12/28 06:10:01;;;;;;;3.78;2.30;;;4.20;91.10;;;;;;5029656;28;20227;-82
2021/12/28 06:12:28;;;;;;;3.00;2.05;;;4.30;90.90;;;;;;5028043;28;20210;-82
2021/12/28 06:14:55;;;;;;;4.72;4.05;;;4.20;91.20;;;;;;5030572;28;20191;-82
2021/12/28 06:17:23;;;;;;;8.68;7.88;;;4.30;91.70;;;;;;5030418;28;20200;-82
2021/12/28 06:19:51;;;;;;;7.00;4.70;;;4.20;91.90;;;;;;5023050;28;20206;-82
2021/12/28 06:22:18;;;;;;;6.95;4.68;;;4.30;91.90;;;;;;5030501;28;20678;-83
2021/12/28 06:24:46;;;;;;;5.00;4.45;;;4.30;91.80;;;;;;5026454;28;20220;-83
2021/12/28 06:27:13;;;;;;;7.75;4.88;;;4.40;91.80;;;;;;5030400;28;20207;-82
2021/12/28 06:29:40;;;;;;;5.05;4.15;;;4.40;91.90;;;;;;5028715;28;20242;-82
2021/12/28 06:32:08;;;;;;;6.28;3.35;;;4.40;91.90;;;;;;5030418;28;20606;-82
2021/12/28 06:34:36;;;;;;;3.63;3.20;;;4.50;91.90;;;;;;5032789;28;20191;-82
2021/12/28 06:37:05;;;;;;;5.28;3.60;;;4.50;91.60;;;;;;5032647;28;20190;-82
2021/12/28 06:39:32;;;;;;;4.18;2.92;;;4.50;91.50;;;;;;5033843;28;20204;-80
2021/12/28 06:41:59;;;;;;;3.97;3.08;;;4.50;91.80;;;;;;5030610;28;20222;-82
2021/12/28 06:44:27;;;;;;;2.72;1.73;;;4.60;92.00;;;;;;5016716;28;20295;-83
2021/12/28 06:46:54;;;;;;;3.13;2.40;;;4.60;91.80;;;;;;5015735;28;20207;-83
2021/12/28 06:49:21;;;;;;;3.78;2.72;;;4.70;91.20;;;;;;5016740;28;20200;-83
2021/12/28 06:51:48;;;;;;;5.97;4.00;;;4.60;90.90;;;;;;5029442;28;20227;-83
2021/12/28 06:54:23;;;;;;;4.07;2.60;;;4.60;91.40;;;;;;5034347;28;20642;-82
2021/12/28 06:56:50;;;;;;;4.13;2.75;;;4.60;91.70;;;;;;5033460;28;20256;-83
2021/12/28 06:59:19;;;;;;;13.43;10.38;;;4.60;91.80;;;;;;5032726;28;20238;-82
2021/12/28 07:01:47;;;;;;;9.55;6.30;;;4.60;91.40;;;;;;5032814;28;20195;-82
2021/12/28 07:04:14;;;;;;;7.20;4.60;;;4.60;91.50;;;;;;5033622;28;20253;-82
2021/12/28 07:06:41;;;;;;;5.35;3.90;;;4.50;91.70;;;;;;5032445;28;20306;-81
2021/12/28 07:09:08;;;;;;;5.50;3.58;;;4.50;91.80;;;;;;5034096;28;20708;-82
2021/12/28 07:11:37;;;;;;;6.15;3.83;;;4.50;91.60;;;;;;5030099;28;20188;-81
2021/12/28 07:14:04;;;;;;;5.90;3.70;;;4.50;91.70;;;;;;5033203;28;20227;-81
2021/12/28 07:16:31;;;;;;;4.90;3.45;;;4.60;91.50;;;;;;5032418;28;20550;-81
2021/12/28 07:18:58;;;;;;;11.38;7.43;;;4.50;91.50;;;;;;5032458;28;20196;-81
2021/12/28 07:21:25;;;;;;;6.50;5.63;;;4.40;91.90;;;;;;5035147;28;20188;-81
2021/12/28 07:23:52;;;;;;;3.55;2.55;;;4.40;92.20;;;;;;5032956;28;20602;-81
2021/12/28 07:26:19;;;;;;;5.22;3.55;;;4.40;92.40;;;;;;5031396;28;20215;-81
2021/12/28 07:28:48;;;;;;;23.48;17.45;;;4.50;92.60;;;;;;5033135;28;20253;-82
2021/12/28 07:31:15;;;;;;;8.95;7.13;;;4.60;92.80;;;;;;5030978;28;20642;-78
2021/12/28 07:33:42;;;;;;;5.75;4.72;;;4.60;92.80;;;;;;5033070;28;20196;-82
2021/12/28 07:36:09;;;;;;;7.50;4.90;;;4.70;92.80;;;;;;5031976;28;20249;-82
2021/12/28 07:38:36;;;;;;;5.63;4.03;;;4.80;92.40;;;;;;5032325;28;20203;-82
2021/12/28 07:41:04;;;;;;;5.13;4.15;;;4.70;92.30;;;;;;5031712;28;20246;-81
2021/12/28 07:43:31;;;;;;;8.02;5.70;;;4.70;92.30;;;;;;5031698;28;20253;-81
2021/12/28 07:46:00;;;;;;;7.25;4.63;;;4.80;92.30;;;;;;5031178;28;20233;-82
2021/12/28 07:48:27;;;;;;;4.40;2.58;;;4.80;92.30;;;;;;5034488;28;20223;-82
2021/12/28 07:50:55;;;;;;;24.80;15.75;;;4.90;92.30;;;;;;5032018;28;20254;-82
2021/12/28 07:53:22;;;;;;;9.45;6.00;;;4.90;92.80;;;;;;5033854;28;20200;-81
2021/12/28 07:55:49;;;;;;;6.30;4.20;;;4.90;92.90;;;;;;5031723;28;20254;-83
2021/12/28 07:58:16;;;;;;;15.23;10.05;;;4.90;92.60;;;;;;5031644;28;20192;-83
2021/12/28 08:00:44;;;;;;;7.20;4.45;;;5.00;92.60;;;;;;5032060;28;20234;-83
2021/12/28 08:03:12;;;;;;;4.60;3.05;;;5.00;92.20;;;;;;5033030;28;20187;-82
2021/12/28 08:05:39;;;;;;;4.50;2.55;;;5.10;92.10;;;;;;5032156;28;20273;-81
2021/12/28 08:08:07;;;;;;;6.80;3.97;;;5.00;92.30;;;;;;5032927;28;20195;-81
2021/12/28 08:10:34;;;;;;;16.75;11.95;;;5.10;92.50;;;;;;5030176;28;20555;-81
2021/12/28 08:13:01;;;;;;;9.25;7.13;;;5.10;92.70;;;;;;5032495;28;20537;-82
2021/12/28 08:15:28;;;;;;;10.00;7.75;;;5.10;92.80;;;;;;5031969;28;20246;-81
2021/12/28 08:17:55;;;;;;;5.47;3.70;;;5.20;92.40;;;;;;5029259;28;20241;-82
2021/12/28 08:20:24;;;;;;;5.70;3.50;;;5.30;92.30;;;;;;5026487;28;20265;-81
2021/12/28 08:22:52;;;;;;;7.60;6.82;;;5.30;92.60;;;;;;5025013;28;20226;-84
2021/12/28 08:25:21;;;;;;;7.63;5.05;;;5.40;92.80;;;;;;5031742;28;20235;-81
2021/12/28 08:27:49;;;;;;;5.43;3.55;;;5.40;93.00;;;;;;5034380;28;20203;-82
2021/12/28 08:30:18;;;;;;;7.72;3.25;;;5.50;93.10;;;;;;5031631;28;20248;-82
2021/12/28 08:32:46;;;;;;;5.88;5.28;;;5.70;93.10;;;;;;5031727;28;20223;-78
2021/12/28 08:35:14;;;;;;;5.68;3.83;;;5.80;92.80;;;;;;5033187;28;20190;-81
2021/12/28 08:37:44;;;;;;;4.10;3.00;;;5.80;92.60;;;;;;5031745;28;20203;-81
2021/12/28 08:40:13;;;;;;;7.18;6.10;;;5.80;92.50;;;;;;5030486;28;20237;-81
2021/12/28 08:42:40;;;;;;;4.32;2.83;;;5.90;92.30;;;;;;5031739;28;20215;-81
2021/12/28 08:45:08;;;;;;;4.03;3.10;;;5.90;91.60;;;;;;5031999;28;20257;-81
2021/12/28 08:47:36;;;;;;;9.32;6.70;;;5.80;91.80;;;;;;5031410;28;20237;-81
2021/12/28 08:50:07;;;;;;;5.75;4.10;;;5.90;92.00;;;;;;5029176;28;20195;-81
2021/12/28 08:52:34;;;;;;;6.10;3.80;;;5.80;91.90;;;;;;5028621;28;20230;-77
2021/12/28 08:55:03;;;;;;;6.35;3.97;;;5.80;91.90;;;;;;5032881;28;20203;-82
2021/12/28 08:57:30;;;;;;;5.15;4.05;;;5.80;92.20;;;;;;5028705;28;20199;-82
2021/12/28 08:59:58;;;;;;;4.22;2.38;;;5.80;92.30;;;;;;5032354;28;20303;-82
2021/12/28 09:02:25;;;;;;;3.80;2.00;;;5.90;92.70;;;;;;5031547;28;20223;-82
2021/12/28 09:04:52;;;;;;;8.15;4.22;;;5.80;92.90;;;;;;5031451;28;20242;-82
2021/12/28 09:07:19;;;;;;;4.75;3.03;;;5.80;93.20;;;;;;5031120;28;20235;-81
2021/12/28 09:09:47;;;;;;;4.70;3.25;;;5.90;93.30;;;;;;5031809;28;20199;-81
2021/12/28 09:12:15;;;;;;;6.10;3.40;;;6.00;93.50;;;;;;5014040;28;20200;-82
2021/12/28 09:14:43;;;;;;;4.30;2.92;;;6.10;93.50;;;;;;5019041;28;20196;-82
2021/12/28 09:17:10;;;;;;;5.35;2.97;;;6.20;93.20;;;;;;5015729;28;20222;-82
2021/12/28 09:19:38;;;;;;;4.00;2.80;;;6.10;93.30;;;;;;5025815;28;20196;-82
2021/12/28 09:22:05;;;;;;;3.10;1.92;;;6.20;93.30;;;;;;5030910;28;20187;-81
2021/12/28 09:24:33;;;;;;;4.80;3.22;;;6.20;93.30;;;;;;5027485;28;20198;-82
2021/12/28 09:27:00;;;;;;;8.60;4.60;;;6.20;93.70;;;;;;5030321;28;20258;-82
2021/12/28 09:29:31;;;;;;;5.55;3.65;;;6.30;93.90;;;;;;5030572;28;20289;-82
2021/12/28 09:32:01;;;;;;;8.27;4.22;;;6.40;93.60;;;;;;5030034;28;20241;-82
2021/12/28 09:34:29;;;;;;;5.75;3.75;;;6.50;93.50;;;;;;5031021;28;20195;-82
2021/12/28 09:36:57;;;;;;;10.13;5.25;;;6.50;93.40;;;;;;5030312;28;20199;-82
2021/12/28 09:39:26;;;;;;;9.25;5.22;;;6.60;93.50;;;;;;5030466;28;20719;-81
2021/12/28 09:41:56;;;;;;;3.70;2.60;;;6.70;93.60;;;;;;5031119;28;20203;-82
2021/12/28 09:44:23;;;;;;;4.68;3.30;;;6.70;93.20;;;;;;5030631;28;20199;-81
2021/12/28 09:46:52;;;;;;;4.18;2.70;;;6.70;93.00;;;;;;5028388;28;20293;-81
2021/12/28 09:49:19;;;;;;;7.18;3.15;;;6.70;93.10;;;;;;5030203;28;20203;-82
2021/12/28 09:51:47;;;;;;;3.22;2.15;;;6.70;93.20;;;;;;5031496;28;20258;-82
2021/12/28 09:54:14;;;;;;;5.55;3.95;;;6.70;93.30;;;;;;5026917;28;20199;-82
2021/12/28 09:56:41;;;;;;;4.50;3.00;;;6.80;93.50;;;;;;5028885;28;20712;-82
2021/12/28 09:59:10;;;;;;;4.03;2.50;;;6.80;93.80;;;;;;5032278;28;20605;-81
2021/12/28 10:01:37;;;;;;;3.65;2.83;;;6.90;94.10;;;;;;5030380;28;20618;-81
2021/12/28 10:04:05;;;;;;;3.38;2.05;;;6.90;94.10;;;;;;5027785;28;20531;-82
2021/12/28 10:06:33;;;;;;;2.97;1.55;;;6.90;94.00;;;;;;5029148;28;20637;-82
2021/12/28 10:09:10;;;;;;;3.05;1.20;;;7.00;93.70;;;;;;5028832;28;20283;-82
2021/12/28 10:11:40;;;;;;;3.50;1.90;;;7.00;94.00;;;;;;5029123;28;20203;-76
2021/12/28 10:14:16;;;;;;;2.97;1.58;;;7.10;94.10;;;;;;5030945;28;20191;-81
2021/12/28 10:16:46;;;;;;;4.10;1.77;;;7.10;94.00;;;;;;5029849;28;20184;-81
2021/12/28 10:19:36;;;;;;;3.67;1.90;;;7.10;93.80;;;;;;5031653;28;20277;-82
2021/12/28 10:22:23;;;;;;;5.18;2.50;;;7.30;94.00;;;;;;5034702;28;20210;-82
2021/12/28 10:24:51;;;;;;;4.35;1.90;;;7.40;94.10;;;;;;5031112;28;20263;-82
2021/12/28 10:27:21;;;;;;;4.95;2.65;;;7.50;94.40;;;;;;5034116;28;20274;-82
2021/12/28 10:29:49;;;;;;;2.83;2.20;;;7.50;94.00;;;;;;5033516;28;20228;-82
2021/12/28 10:32:19;;;;;;;5.63;3.50;;;7.50;93.90;;;;;;5034404;28;20290;-82
2021/12/28 10:34:49;;;;;;;5.95;2.70;;;7.60;94.00;;;;;;5034116;28;20654;-81
2021/12/28 10:37:21;;;;;;;7.13;4.00;;;7.70;94.00;;;;;;5033979;28;20188;-83
2021/12/28 10:39:51;;;;;;;4.15;3.38;;;7.80;94.30;;;;;;5033512;28;20742;-82
2021/12/28 10:42:54;;;;;;;6.25;4.50;;;7.90;94.10;;;;;;5033465;28;20304;-82
2021/12/28 10:45:23;;;;;;;5.22;3.95;;;7.90;94.00;;;;;;5033763;28;20290;-81
2021/12/28 10:47:52;;;;;;;10.48;4.53;;;8.00;94.40;;;;;;5033500;28;20311;-83
2021/12/28 10:50:29;;;;;;;7.30;6.60;;;8.20;94.60;;;;;;5034224;28;20203;-82
2021/12/28 10:53:18;;;;;;;5.78;5.18;;;8.30;94.50;;;;;;5034068;28;20735;-82
2021/12/28 10:55:47;;;;;;;6.90;5.07;;;8.30;94.20;;;;;;5033567;28;20188;-81
2021/12/28 10:58:30;;;;;;;6.97;5.57;;;8.40;94.10;;;;;;5031186;28;20249;-83
2021/12/28 11:01:06;;;;;;;6.10;4.60;;;8.40;94.10;;;;;;5032934;28;20188;-82
2021/12/28 11:03:35;;;;;;;8.38;3.50;;;8.50;94.00;;;;;;5033533;28;20191;-82
2021/12/28 11:06:08;;;;;;;4.88;3.20;;;8.50;94.10;;;;;;5034891;28;20221;-82
2021/12/28 11:08:35;;;;;;;6.55;3.97;;;8.60;94.00;;;;;;5032495;28;20192;-81
2021/12/28 11:11:07;;;;;;;10.07;4.20;;;8.70;94.10;;;;;;5029913;28;20191;-81
2021/12/28 11:13:35;;;;;;;6.50;4.30;;;8.80;94.20;;;;;;5033150;28;20203;-82
2021/12/28 11:16:04;;;;;;;8.45;4.43;;;9.00;94.00;;;;;;5029295;28;20278;-80
2021/12/28 11:18:34;;;;;;;6.07;3.05;;;9.10;93.60;;;;;;5031374;28;20280;-83
2021/12/28 11:21:11;;;;;;;5.25;2.92;;;9.10;93.40;;;;;;5032861;28;20213;-84
2021/12/28 11:23:38;;;;;;;4.57;2.80;;;9.10;93.20;;;;;;5029406;28;20192;-84
2021/12/28 11:26:09;;;;;;;4.30;3.30;;;9.20;93.00;;;;;;5031566;28;20282;-85
2021/12/28 11:28:37;;;;;;;6.55;3.92;;;9.10;92.40;;;;;;5030315;28;20273;-83
2021/12/28 11:31:09;;;;;;;6.65;2.78;;;9.10;92.40;;;;;;5029662;28;20684;-83
2021/12/28 11:33:58;;;;;;;6.35;4.07;;;9.00;92.40;;;;;;5029241;28;20230;-84
2021/12/28 11:36:29;;;;;;;10.05;7.32;;;9.00;92.40;;;;;;5029894;28;20294;-83
2021/12/28 11:38:59;;;;;;;5.97;4.90;;;9.00;92.90;;;;;;5030469;28;20282;-84
2021/12/28 11:41:27;;;;;;;5.50;3.60;;;9.00;93.30;;;;;;5032060;28;20199;-83
2021/12/28 11:43:55;;;;;;;7.93;4.88;;;9.10;93.60;;;;;;5033300;28;20282;-83
2021/12/28 11:46:23;;;;;;;7.95;4.43;;;9.10;93.90;;;;;;5032201;28;20745;-83
2021/12/28 11:48:50;;;;;;;5.25;2.78;;;9.30;94.10;;;;;;5032078;28;20287;-83
2021/12/28 11:51:17;;;;;;;6.82;3.42;;;9.40;94.40;;;;;;5031674;28;20258;-82
2021/12/28 11:53:48;;;;;;;6.07;3.22;;;9.70;94.30;;;;;;5030050;28;22064;-83
2021/12/28 11:56:17;;;;;;;5.93;2.55;;;10.00;94.10;;;;;;5032200;28;20303;-83
2021/12/28 11:58:52;;;;;;;6.47;2.70;;;10.30;93.40;;;;;;5033987;28;20624;-83
2021/12/28 12:01:43;;;;;;;8.38;4.38;;;10.50;91.90;;;;;;5031574;28;20632;-83
2021/12/28 12:04:57;;;;;;;6.47;3.92;;;10.90;91.40;;;;;;5029767;28;20641;-82
2021/12/28 12:07:31;;;;;;;8.95;5.00;;;11.10;91.10;;;;;;5033281;28;20219;-83
2021/12/28 12:10:30;;;;;;;6.75;4.10;;;11.60;91.60;;;;;;5026925;28;20634;-83
2021/12/28 12:13:01;;;;;;;5.53;3.20;;;11.80;89.10;;;;;;5028838;28;20277;-82
2021/12/28 12:15:36;;;;;;;3.22;2.35;;;11.80;88.50;;;;;;5028407;28;20195;-83
2021/12/28 12:18:03;;;;;;;4.55;2.70;;;11.70;87.80;;;;;;5028705;28;20282;-82
2021/12/28 12:20:36;;;;;;;4.95;2.85;;;11.60;87.00;;;;;;5029507;28;20199;-82
2021/12/28 12:23:15;;;;;;;4.68;3.05;;;11.70;87.70;;;;;;5028538;28;20549;-82
2021/12/28 12:26:08;;;;;;;5.28;3.00;;;11.80;87.50;;;;;;5032070;28;20187;-83
2021/12/28 12:28:48;;;;;;;5.47;3.63;;;11.80;87.30;;;;;;5028691;28;20204;-80
2021/12/28 12:31:30;;;;;;;4.53;2.55;;;11.80;88.60;;;;;;5029811;28;20442;-84
2021/12/28 12:33:58;;;;;;;5.82;3.35;;;12.10;88.60;;;;;;5030385;28;20627;-84
2021/12/28 12:36:37;;;;;;;5.40;3.70;;;12.40;87.10;;;;;;5032502;28;20192;-83
2021/12/28 12:39:05;;;;;;;4.83;2.30;;;12.50;85.50;;;;;;5031419;28;20438;-82
2021/12/28 12:41:55;;;;;;;5.20;2.83;;;12.50;84.40;;;;;;5028697;28;20465;-83
2021/12/28 12:44:25;;;;;;;11.07;4.63;;;12.50;83.50;;;;;;5024328;28;20450;-84
2021/12/28 12:46:55;;;;;;;5.03;3.27;;;12.70;84.00;;;;;;5034557;28;20580;-84
2021/12/28 12:49:24;;;;;;;5.03;3.53;;;12.80;82.80;;;;;;5030370;28;20840;-83
2021/12/28 12:51:55;;;;;;;8.00;4.50;;;13.20;83.00;;;;;;5030838;28;20466;-84
2021/12/28 12:54:26;;;;;;;7.20;3.87;;;13.70;82.20;;;;;;5031039;28;20453;-84
2021/12/28 12:57:06;;;;;;;3.77;2.30;;;14.00;79.00;;;;;;5030932;28;20450;-84
2021/12/28 12:59:45;;;;;;;6.10;3.30;;;14.20;78.40;;;;;;5033319;28;20466;-84
2021/12/28 13:02:21;;;;;;;3.57;2.50;;;14.00;77.50;;;;;;5033890;28;20849;-84
2021/12/28 13:04:54;;;;;;;4.70;2.30;;;13.70;77.30;;;;;;5030312;28;20442;-84
2021/12/28 13:07:28;;;;;;;3.40;2.10;;;13.30;78.50;;;;;;5029710;28;21109;-84
2021/12/28 13:10:08;;;;;;;4.93;2.37;;;13.10;78.70;;;;;;5017449;28;20532;-83
2021/12/28 13:12:38;;;;;;;3.07;1.90;;;12.90;80.60;;;;;;5026799;28;20488;-84